aviador You're here:

KHEY Decoded Metar

in _UNIDENTIFIED
Report Time2018-05-28 04:36:00
UTC Time2018-05-28 04:46:20
Flight Rules ifr IFR
Wind090° at 06 kt
W.Decomp.*RWY 17: 1.3 kt HW 5.8 kt LCW
W.Rank090° ranks 6
Current wind is above 090° avg. (5.7)
Visibility9999 m
Phenomena:N/A
Clouds:Overcast 005 Hf
Expected CloudBase > 400 ft AGL from Temp-Dew spread
Ceiling500 ft
Temp22°C (ISA +8)
Dew Point21°C (94% RH)
QNH1008 hPa
Density Alt1,706 ft
Elevation318 ft
Report Wrong Elevation
Raw Report
KHEY 280436Z AUTO 09006KT 10SM OVC005 22/21 A2978 RMK AO2 RAE15
SLP084=

Extra information for KHEY:More info

Metar Taf Metar & Taf Last 4 Metars F.Rules Stats Wind Profile Meteogram Temp Stats Metar ALERT Operation Metar Decoded Social comments